sensor_id;sensor_type;location;lat;lon;timestamp;pressure;altitude;pressure_sealevel;temperature;humidity
56330;BME280;42236;48.058;10.632;2024-03-23T00:53:05;94171.78;;;9.24;68.13
56330;BME280;42236;48.058;10.632;2024-03-23T00:55:50;94168.53;;;9.18;68.55
56330;BME280;42236;48.058;10.632;2024-03-23T00:58:37;94166.78;;;9.10;68.89
56330;BME280;42236;48.058;10.632;2024-03-23T01:01:22;94160.75;;;9.01;69.38
56330;BME280;42236;48.058;10.632;2024-03-23T01:04:08;94154.84;;;8.95;69.48
56330;BME280;42236;48.058;10.632;2024-03-23T01:06:53;94154.31;;;8.89;69.63
56330;BME280;42236;48.058;10.632;2024-03-23T01:09:39;94150.28;;;8.83;69.90
56330;BME280;42236;48.058;10.632;2024-03-23T01:12:25;94142.13;;;8.80;70.07
56330;BME280;42236;48.058;10.632;2024-03-23T01:15:10;94145.16;;;8.78;70.47
56330;BME280;42236;48.058;10.632;2024-03-23T01:17:56;94133.69;;;8.81;70.48
56330;BME280;42236;48.058;10.632;2024-03-23T01:20:42;94124.03;;;8.92;70.62
56330;BME280;42236;48.058;10.632;2024-03-23T01:23:27;94129.25;;;9.01;70.24
56330;BME280;42236;48.058;10.632;2024-03-23T01:26:13;94122.19;;;9.09;70.20
56330;BME280;42236;48.058;10.632;2024-03-23T01:28:59;94118.53;;;9.17;70.07
56330;BME280;42236;48.058;10.632;2024-03-23T01:31:44;94124.13;;;9.24;69.90
56330;BME280;42236;48.058;10.632;2024-03-23T01:34:31;94115.91;;;9.33;69.60
56330;BME280;42236;48.058;10.632;2024-03-23T01:37:16;94120.41;;;9.45;69.52
56330;BME280;42236;48.058;10.632;2024-03-23T01:40:02;94120.25;;;9.53;69.21
56330;BME280;42236;48.058;10.632;2024-03-23T01:42:56;94111.13;;;9.58;70.16
56330;BME280;42236;48.058;10.632;2024-03-23T01:45:42;94114.28;;;9.60;69.35
56330;BME280;42236;48.058;10.632;2024-03-23T01:48:27;94115.81;;;9.61;69.22
56330;BME280;42236;48.058;10.632;2024-03-23T01:51:14;94105.41;;;9.59;69.53
56330;BME280;42236;48.058;10.632;2024-03-23T01:54:00;94094.66;;;9.59;69.50
56330;BME280;42236;48.058;10.632;2024-03-23T01:56:48;94094.22;;;9.57;69.73
56330;BME280;42236;48.058;10.632;2024-03-23T01:59:34;94091.84;;;9.56;69.99
56330;BME280;42236;48.058;10.632;2024-03-23T02:02:21;94083.34;;;9.54;70.13
56330;BME280;42236;48.058;10.632;2024-03-23T02:05:06;94081.00;;;9.52;70.33
56330;BME280;42236;48.058;10.632;2024-03-23T02:07:53;94081.69;;;9.49;70.57
56330;BME280;42236;48.058;10.632;2024-03-23T02:10:39;94069.88;;;9.38;70.98
56330;BME280;42236;48.058;10.632;2024-03-23T02:13:25;94076.25;;;9.17;71.40
56330;BME280;42236;48.058;10.632;2024-03-23T02:16:10;94073.00;;;8.96;72.32
56330;BME280;42236;48.058;10.632;2024-03-23T02:18:56;94069.41;;;8.76;72.92
56330;BME280;42236;48.058;10.632;2024-03-23T02:21:42;94070.16;;;8.61;73.49
56330;BME280;42236;48.058;10.632;2024-03-23T02:24:29;94065.91;;;8.47;74.26
56330;BME280;42236;48.058;10.632;2024-03-23T02:27:14;94069.06;;;8.37;75.08
56330;BME280;42236;48.058;10.632;2024-03-23T02:30:00;94055.75;;;8.28;75.89
56330;BME280;42236;48.058;10.632;2024-03-23T02:32:46;94062.13;;;8.24;75.69
56330;BME280;42236;48.058;10.632;2024-03-23T02:35:32;94059.44;;;8.24;75.66
56330;BME280;42236;48.058;10.632;2024-03-23T02:38:18;94065.94;;;8.23;75.70
56330;BME280;42236;48.058;10.632;2024-03-23T02:41:04;94059.81;;;8.22;75.75
56330;BME280;42236;48.058;10.632;2024-03-23T02:43:50;94055.19;;;8.23;75.54
56330;BME280;42236;48.058;10.632;2024-03-23T02:46:35;94049.81;;;8.23;75.62
56330;BME280;42236;48.058;10.632;2024-03-23T02:49:21;94051.38;;;8.24;75.61
56330;BME280;42236;48.058;10.632;2024-03-23T02:52:07;94044.44;;;8.23;75.74
56330;BME280;42236;48.058;10.632;2024-03-23T02:54:52;94029.56;;;8.25;75.87
56330;BME280;42236;48.058;10.632;2024-03-23T02:57:38;94036.59;;;8.30;76.30
56330;BME280;42236;48.058;10.632;2024-03-23T03:00:24;94032.56;;;8.36;76.17
56330;BME280;42236;48.058;10.632;2024-03-23T03:03:09;94038.84;;;8.40;76.30
56330;BME280;42236;48.058;10.632;2024-03-23T03:05:56;94026.72;;;8.46;76.55
56330;BME280;42236;48.058;10.632;2024-03-23T03:08:41;94025.34;;;8.52;75.96
56330;BME280;42236;48.058;10.632;2024-03-23T03:11:27;94016.38;;;8.61;76.03
56330;BME280;42236;48.058;10.632;2024-03-23T03:14:13;94017.22;;;8.65;75.74
56330;BME280;42236;48.058;10.632;2024-03-23T03:16:58;94008.94;;;8.70;75.89
56330;BME280;42236;48.058;10.632;2024-03-23T03:19:44;94004.84;;;8.76;76.01
56330;BME280;42236;48.058;10.632;2024-03-23T03:22:30;94001.91;;;8.81;75.84
56330;BME280;42236;48.058;10.632;2024-03-23T03:25:16;93998.53;;;8.84;75.71
56330;BME280;42236;48.058;10.632;2024-03-23T03:28:03;93999.34;;;8.85;75.54
56330;BME280;42236;48.058;10.632;2024-03-23T03:30:49;93993.16;;;8.84;75.37
56330;BME280;42236;48.058;10.632;2024-03-23T03:33:35;93984.31;;;8.84;75.45
56330;BME280;42236;48.058;10.632;2024-03-23T03:36:20;93978.59;;;8.85;75.49
56330;BME280;42236;48.058;10.632;2024-03-23T03:39:06;93972.78;;;8.83;75.38
56330;BME280;42236;48.058;10.632;2024-03-23T03:41:52;93967.41;;;8.83;75.42
56330;BME280;42236;48.058;10.632;2024-03-23T03:44:38;93958.88;;;8.81;75.66
56330;BME280;42236;48.058;10.632;2024-03-23T03:47:25;93954.22;;;8.78;75.64
56330;BME280;42236;48.058;10.632;2024-03-23T03:50:10;93948.81;;;8.78;75.72
56330;BME280;42236;48.058;10.632;2024-03-23T03:52:56;93951.06;;;8.76;75.65
56330;BME280;42236;48.058;10.632;2024-03-23T03:55:41;93946.84;;;8.75;75.96
56330;BME280;42236;48.058;10.632;2024-03-23T03:58:28;93925.31;;;8.75;75.98
56330;BME280;42236;48.058;10.632;2024-03-23T04:01:13;93923.41;;;8.75;75.95
56330;BME280;42236;48.058;10.632;2024-03-23T04:03:59;93929.22;;;8.78;75.64
56330;BME280;42236;48.058;10.632;2024-03-23T04:06:44;93927.31;;;8.78;75.65
56330;BME280;42236;48.058;10.632;2024-03-23T04:09:30;93930.69;;;8.75;75.81
56330;BME280;42236;48.058;10.632;2024-03-23T04:12:16;93917.69;;;8.77;75.75
56330;BME280;42236;48.058;10.632;2024-03-23T04:15:02;93915.41;;;8.79;76.11
56330;BME280;42236;48.058;10.632;2024-03-23T04:17:49;93908.50;;;8.78;76.04
56330;BME280;42236;48.058;10.632;2024-03-23T04:20:35;93907.72;;;8.78;76.47
56330;BME280;42236;48.058;10.632;2024-03-23T04:23:20;93899.22;;;8.75;76.84
56330;BME280;42236;48.058;10.632;2024-03-23T04:26:06;93893.72;;;8.72;77.68
56330;BME280;42236;48.058;10.632;2024-03-23T04:28:53;93899.09;;;8.72;77.64
56330;BME280;42236;48.058;10.632;2024-03-23T04:31:39;93902.22;;;8.74;77.55
56330;BME280;42236;48.058;10.632;2024-03-23T04:34:24;93895.75;;;8.75;77.67
56330;BME280;42236;48.058;10.632;2024-03-23T04:37:11;93893.06;;;8.75;77.50
56330;BME280;42236;48.058;10.632;2024-03-23T04:39:56;93893.50;;;8.77;77.53
56330;BME280;42236;48.058;10.632;2024-03-23T04:42:42;93894.59;;;8.76;77.46
56330;BME280;42236;48.058;10.632;2024-03-23T04:45:28;93893.84;;;8.75;77.36
56330;BME280;42236;48.058;10.632;2024-03-23T04:48:13;93895.38;;;8.76;77.36
56330;BME280;42236;48.058;10.632;2024-03-23T04:50:59;93890.28;;;8.87;77.18
56330;BME280;42236;48.058;10.632;2024-03-23T04:53:45;93888.59;;;8.98;76.93
56330;BME280;42236;48.058;10.632;2024-03-23T04:56:30;93899.38;;;9.14;76.10
56330;BME280;42236;48.058;10.632;2024-03-23T04:59:16;93893.59;;;9.32;75.67
56330;BME280;42236;48.058;10.632;2024-03-23T05:02:02;93884.28;;;9.45;75.42
56330;BME280;42236;48.058;10.632;2024-03-23T05:04:48;93891.19;;;9.62;74.50
56330;BME280;42236;48.058;10.632;2024-03-23T05:07:34;93873.00;;;9.75;73.88
56330;BME280;42236;48.058;10.632;2024-03-23T05:10:19;93881.22;;;9.82;73.56
56330;BME280;42236;48.058;10.632;2024-03-23T05:13:05;93864.06;;;9.90;73.03
56330;BME280;42236;48.058;10.632;2024-03-23T05:15:54;93870.09;;;10.03;72.12
56330;BME280;42236;48.058;10.632;2024-03-23T05:18:40;93852.63;;;10.16;71.94
56330;BME280;42236;48.058;10.632;2024-03-23T05:21:26;93858.00;;;10.36;71.37
56330;BME280;42236;48.058;10.632;2024-03-23T05:24:12;93849.75;;;10.48;71.01
56330;BME280;42236;48.058;10.632;2024-03-23T05:26:57;93842.34;;;10.64;69.95
56330;BME280;42236;48.058;10.632;2024-03-23T05:29:44;93836.31;;;10.75;70.15
56330;BME280;42236;48.058;10.632;2024-03-23T05:32:30;93818.75;;;10.84;69.70
56330;BME280;42236;48.058;10.632;2024-03-23T05:35:16;93811.16;;;10.90;69.27
56330;BME280;42236;48.058;10.632;2024-03-23T05:38:01;93819.69;;;10.96;69.48
56330;BME280;42236;48.058;10.632;2024-03-23T05:40:58;93822.06;;;10.97;68.55
56330;BME280;42236;48.058;10.632;2024-03-23T05:43:44;93816.69;;;11.01;69.04
56330;BME280;42236;48.058;10.632;2024-03-23T05:46:30;93809.78;;;11.03;68.80
56330;BME280;42236;48.058;10.632;2024-03-23T05:49:15;93803.66;;;11.06;68.70
56330;BME280;42236;48.058;10.632;2024-03-23T05:52:02;93802.19;;;11.09;68.35
56330;BME280;42236;48.058;10.632;2024-03-23T05:54:49;93790.66;;;11.12;68.17
56330;BME280;42236;48.058;10.632;2024-03-23T05:57:34;93782.59;;;11.16;68.35
56330;BME280;42236;48.058;10.632;2024-03-23T06:00:20;93771.44;;;11.17;68.57
56330;BME280;42236;48.058;10.632;2024-03-23T06:03:06;93762.97;;;11.19;68.84
56330;BME280;42236;48.058;10.632;2024-03-23T06:05:52;93763.00;;;11.22;69.15
56330;BME280;42236;48.058;10.632;2024-03-23T06:08:38;93773.91;;;11.29;69.34
56330;BME280;42236;48.058;10.632;2024-03-23T06:11:24;93768.63;;;11.40;69.19
56330;BME280;42236;48.058;10.632;2024-03-23T06:14:12;93771.91;;;11.57;68.96
56330;BME280;42236;48.058;10.632;2024-03-23T06:16:57;93762.47;;;11.73;68.60
56330;BME280;42236;48.058;10.632;2024-03-23T06:19:43;93749.88;;;11.85;68.34
56330;BME280;42236;48.058;10.632;2024-03-23T06:22:29;93738.38;;;11.91;68.59
56330;BME280;42236;48.058;10.632;2024-03-23T06:25:14;93744.59;;;11.95;68.80
56330;BME280;42236;48.058;10.632;2024-03-23T06:28:00;93729.19;;;12.00;68.40
56330;BME280;42236;48.058;10.632;2024-03-23T06:30:48;93735.00;;;12.02;68.43
56330;BME280;42236;48.058;10.632;2024-03-23T06:33:33;93744.66;;;12.03;68.55
56330;BME280;42236;48.058;10.632;2024-03-23T06:36:19;93747.78;;;12.05;68.29
56330;BME280;42236;48.058;10.632;2024-03-23T06:39:05;93759.34;;;12.05;67.95
56330;BME280;42236;48.058;10.632;2024-03-23T06:41:52;93759.41;;;12.09;68.28
56330;BME280;42236;48.058;10.632;2024-03-23T06:44:38;93751.72;;;12.11;67.11
56330;BME280;42236;48.058;10.632;2024-03-23T06:47:24;93771.03;;;12.13;66.08
56330;BME280;42236;48.058;10.632;2024-03-23T06:50:11;93781.03;;;12.09;66.33
56330;BME280;42236;48.058;10.632;2024-03-23T06:52:56;93795.16;;;11.95;67.22
56330;BME280;42236;48.058;10.632;2024-03-23T06:55:50;93802.56;;;11.68;70.02
56330;BME280;42236;48.058;10.632;2024-03-23T06:58:36;93817.47;;;11.28;73.25
56330;BME280;42236;48.058;10.632;2024-03-23T07:01:21;93822.09;;;11.01;74.81
56330;BME280;42236;48.058;10.632;2024-03-23T07:04:07;93823.56;;;10.72;77.52
56330;BME280;42236;48.058;10.632;2024-03-23T07:06:53;93828.97;;;10.49;80.93
56330;BME280;42236;48.058;10.632;2024-03-23T07:09:39;93829.34;;;10.28;84.82
56330;BME280;42236;48.058;10.632;2024-03-23T07:12:24;93829.81;;;10.10;83.67
56330;BME280;42236;48.058;10.632;2024-03-23T07:15:10;93829.25;;;10.01;85.67
56330;BME280;42236;48.058;10.632;2024-03-23T07:17:56;93836.75;;;9.92;87.74
56330;BME280;42236;48.058;10.632;2024-03-23T07:20:42;93846.63;;;9.84;88.49
56330;BME280;42236;48.058;10.632;2024-03-23T07:23:28;93844.56;;;9.77;92.16
56330;BME280;42236;48.058;10.632;2024-03-23T07:26:13;93845.91;;;9.68;93.23
56330;BME280;42236;48.058;10.632;2024-03-23T07:28:59;93855.75;;;9.60;93.44
56330;BME280;42236;48.058;10.632;2024-03-23T07:31:45;93848.66;;;9.52;96.35
56330;BME280;42236;48.058;10.632;2024-03-23T07:34:30;93857.00;;;9.47;96.06
56330;BME280;42236;48.058;10.632;2024-03-23T07:37:16;93874.22;;;9.42;96.60
56330;BME280;42236;48.058;10.632;2024-03-23T07:40:02;93896.72;;;9.34;98.43
56330;BME280;42236;48.058;10.632;2024-03-23T07:42:47;93901.19;;;9.26;99.82
56330;BME280;42236;48.058;10.632;2024-03-23T07:45:33;93902.56;;;9.20;100.00
56330;BME280;42236;48.058;10.632;2024-03-23T07:48:23;93905.09;;;9.13;100.00
56330;BME280;42236;48.058;10.632;2024-03-23T07:51:09;93911.44;;;9.05;100.00
56330;BME280;42236;48.058;10.632;2024-03-23T07:53:55;93934.44;;;9.02;100.00
56330;BME280;42236;48.058;10.632;2024-03-23T07:56:41;93943.97;;;8.84;100.00
56330;BME280;42236;48.058;10.632;2024-03-23T07:59:27;93950.81;;;8.65;100.00
56330;BME280;42236;48.058;10.632;2024-03-23T08:02:13;93942.25;;;8.47;100.00
56330;BME280;42236;48.058;10.632;2024-03-23T08:04:59;93966.72;;;8.30;100.00
56330;BME280;42236;48.058;10.632;2024-03-23T08:07:45;93962.63;;;8.20;100.00
56330;BME280;42236;48.058;10.632;2024-03-23T08:10:31;93988.06;;;8.10;100.00
56330;BME280;42236;48.058;10.632;2024-03-23T08:13:17;93983.06;;;7.97;100.00
56330;BME280;42236;48.058;10.632;2024-03-23T08:16:03;93986.78;;;7.80;100.00
56330;BME280;42236;48.058;10.632;2024-03-23T08:18:54;93960.66;;;7.64;100.00
56330;BME280;42236;48.058;10.632;2024-03-23T08:21:41;93982.69;;;7.58;100.00
56330;BME280;42236;48.058;10.632;2024-03-23T08:24:26;93991.41;;;7.55;100.00
56330;BME280;42236;48.058;10.632;2024-03-23T08:27:12;94007.41;;;7.51;100.00
56330;BME280;42236;48.058;10.632;2024-03-23T08:29:58;94009.31;;;7.51;100.00
56330;BME280;42236;48.058;10.632;2024-03-23T08:32:43;93992.41;;;7.50;100.00
56330;BME280;42236;48.058;10.632;2024-03-23T08:35:29;93998.69;;;7.54;100.00
56330;BME280;42236;48.058;10.632;2024-03-23T08:38:15;94011.44;;;7.57;100.00
56330;BME280;42236;48.058;10.632;2024-03-23T08:41:07;94021.94;;;7.62;100.00
56330;BME280;42236;48.058;10.632;2024-03-23T08:43:53;94029.66;;;7.64;100.00
56330;BME280;42236;48.058;10.632;2024-03-23T08:46:39;94044.09;;;7.59;100.00
56330;BME280;42236;48.058;10.632;2024-03-23T08:49:25;94053.16;;;7.55;100.00
56330;BME280;42236;48.058;10.632;2024-03-23T08:52:10;94071.16;;;7.42;100.00
56330;BME280;42236;48.058;10.632;2024-03-23T08:54:56;94073.50;;;6.98;100.00
56330;BME280;42236;48.058;10.632;2024-03-23T08:57:42;94092.13;;;6.61;100.00
56330;BME280;42236;48.058;10.632;2024-03-23T09:00:28;94083.91;;;6.24;100.00
56330;BME280;42236;48.058;10.632;2024-03-23T09:03:13;94099.19;;;6.03;100.00
56330;BME280;42236;48.058;10.632;2024-03-23T09:05:59;94101.94;;;5.85;100.00
56330;BME280;42236;48.058;10.632;2024-03-23T09:08:45;94115.94;;;5.82;100.00
56330;BME280;42236;48.058;10.632;2024-03-23T09:11:31;94105.69;;;5.84;100.00
56330;BME280;42236;48.058;10.632;2024-03-23T09:14:16;94123.00;;;5.87;100.00
56330;BME280;42236;48.058;10.632;2024-03-23T09:17:02;94126.94;;;5.89;100.00
56330;BME280;42236;48.058;10.632;2024-03-23T09:19:48;94133.88;;;5.90;100.00
56330;BME280;42236;48.058;10.632;2024-03-23T09:22:33;94145.53;;;5.94;100.00
56330;BME280;42236;48.058;10.632;2024-03-23T09:25:19;94152.13;;;5.97;100.00
56330;BME280;42236;48.058;10.632;2024-03-23T09:28:06;94151.16;;;6.02;100.00
56330;BME280;42236;48.058;10.632;2024-03-23T09:30:52;94149.09;;;6.07;100.00
56330;BME280;42236;48.058;10.632;2024-03-23T09:33:37;94148.13;;;6.12;100.00
56330;BME280;42236;48.058;10.632;2024-03-23T09:36:23;94163.84;;;6.13;100.00
56330;BME280;42236;48.058;10.632;2024-03-23T09:39:09;94151.69;;;6.16;100.00
56330;BME280;42236;48.058;10.632;2024-03-23T09:41:57;94167.75;;;6.16;100.00
56330;BME280;42236;48.058;10.632;2024-03-23T09:44:43;94159.28;;;6.14;100.00
56330;BME280;42236;48.058;10.632;2024-03-23T09:47:29;94148.13;;;6.12;100.00
56330;BME280;42236;48.058;10.632;2024-03-23T09:50:15;94158.81;;;6.12;100.00
56330;BME280;42236;48.058;10.632;2024-03-23T09:53:01;94143.72;;;6.07;100.00
56330;BME280;42236;48.058;10.632;2024-03-23T09:55:47;94171.66;;;5.97;100.00
56330;BME280;42236;48.058;10.632;2024-03-23T09:58:33;94163.31;;;5.90;100.00
56330;BME280;42236;48.058;10.632;2024-03-23T10:01:19;94174.69;;;5.87;100.00
56330;BME280;42236;48.058;10.632;2024-03-23T10:04:05;94185.38;;;5.87;100.00
56330;BME280;42236;48.058;10.632;2024-03-23T10:06:51;94190.25;;;5.85;100.00
56330;BME280;42236;48.058;10.632;2024-03-23T10:09:36;94183.59;;;5.91;100.00
56330;BME280;42236;48.058;10.632;2024-03-23T10:12:23;94192.91;;;6.03;100.00
56330;BME280;42236;48.058;10.632;2024-03-23T10:15:15;94193.81;;;6.07;100.00
56330;BME280;42236;48.058;10.632;2024-03-23T10:18:19;94201.84;;;6.07;100.00
56330;BME280;42236;48.058;10.632;2024-03-23T10:23:50;94202.63;;;6.07;100.00
56330;BME280;42236;48.058;10.632;2024-03-23T10:26:36;94205.78;;;6.09;100.00
56330;BME280;42236;48.058;10.632;2024-03-23T10:29:22;94199.31;;;6.10;100.00
56330;BME280;42236;48.058;10.632;2024-03-23T10:32:09;94197.41;;;6.11;100.00
56330;BME280;42236;48.058;10.632;2024-03-23T10:34:55;94210.34;;;6.09;100.00
56330;BME280;42236;48.058;10.632;2024-03-23T10:37:42;94221.69;;;6.06;100.00
56330;BME280;42236;48.058;10.632;2024-03-23T10:40:29;94229.91;;;6.01;100.00
56330;BME280;42236;48.058;10.632;2024-03-23T10:43:15;94230.38;;;6.03;100.00
56330;BME280;42236;48.058;10.632;2024-03-23T10:46:02;94241.06;;;6.11;100.00
56330;BME280;42236;48.058;10.632;2024-03-23T10:48:48;94250.75;;;6.25;100.00
56330;BME280;42236;48.058;10.632;2024-03-23T10:51:34;94245.69;;;6.32;100.00
56330;BME280;42236;48.058;10.632;2024-03-23T10:54:21;94219.44;;;6.46;100.00
56330;BME280;42236;48.058;10.632;2024-03-23T10:57:11;94226.13;;;6.61;100.00
56330;BME280;42236;48.058;10.632;2024-03-23T10:59:58;94244.78;;;6.78;100.00
56330;BME280;42236;48.058;10.632;2024-03-23T11:02:44;94248.47;;;6.95;100.00
56330;BME280;42236;48.058;10.632;2024-03-23T11:05:30;94252.97;;;7.03;100.00
56330;BME280;42236;48.058;10.632;2024-03-23T11:08:30;94258.47;;;7.07;100.00
56330;BME280;42236;48.058;10.632;2024-03-23T11:11:20;94261.38;;;7.22;100.00
56330;BME280;42236;48.058;10.632;2024-03-23T11:14:13;94259.16;;;7.37;100.00
56330;BME280;42236;48.058;10.632;2024-03-23T11:17:10;94257.66;;;7.48;99.52
56330;BME280;42236;48.058;10.632;2024-03-23T11:22:46;94222.88;;;7.85;98.23
56330;BME280;42236;48.058;10.632;2024-03-23T11:25:33;94232.97;;;8.00;97.57
56330;BME280;42236;48.058;10.632;2024-03-23T11:28:18;94251.34;;;8.10;97.55
56330;BME280;42236;48.058;10.632;2024-03-23T11:31:09;94259.91;;;7.91;94.98
56330;BME280;42236;48.058;10.632;2024-03-23T11:34:05;94247.91;;;7.77;97.29
56330;BME280;42236;48.058;10.632;2024-03-23T11:37:03;94252.13;;;7.65;95.15
56330;BME280;42236;48.058;10.632;2024-03-23T11:39:49;94230.97;;;7.52;95.25
56330;BME280;42236;48.058;10.632;2024-03-23T11:42:35;94232.22;;;7.33;95.95
56330;BME280;42236;48.058;10.632;2024-03-23T11:45:21;94226.09;;;7.12;96.06
56330;BME280;42236;48.058;10.632;2024-03-23T11:50:57;94260.44;;;6.97;97.75
56330;BME280;42236;48.058;10.632;2024-03-23T11:53:43;94250.63;;;7.01;97.20
56330;BME280;42236;48.058;10.632;2024-03-23T11:56:29;94246.19;;;6.84;95.36
56330;BME280;42236;48.058;10.632;2024-03-23T11:59:30;94230.88;;;6.85;96.53
56330;BME280;42236;48.058;10.632;2024-03-23T12:02:18;94226.41;;;7.10;99.54
56330;BME280;42236;48.058;10.632;2024-03-23T12:05:14;94227.31;;;7.35;98.60
56330;BME280;42236;48.058;10.632;2024-03-23T12:13:59;94223.47;;;7.57;92.19
56330;BME280;42236;48.058;10.632;2024-03-23T12:16:45;94219.41;;;7.51;86.62
56330;BME280;42236;48.058;10.632;2024-03-23T12:19:30;94229.06;;;7.52;87.35
56330;BME280;42236;48.058;10.632;2024-03-23T12:22:20;94225.63;;;7.64;87.09
56330;BME280;42236;48.058;10.632;2024-03-23T12:25:06;94215.16;;;7.83;86.76
56330;BME280;42236;48.058;10.632;2024-03-23T12:27:52;94208.13;;;7.91;81.63
56330;BME280;42236;48.058;10.632;2024-03-23T12:30:39;94202.66;;;8.00;79.71
56330;BME280;42236;48.058;10.632;2024-03-23T12:33:25;94193.91;;;7.90;71.81
56330;BME280;42236;48.058;10.632;2024-03-23T12:36:11;94211.69;;;7.83;73.67
56330;BME280;42236;48.058;10.632;2024-03-23T12:38:56;94223.34;;;7.99;76.80
56330;BME280;42236;48.058;10.632;2024-03-23T12:41:42;94215.97;;;8.08;75.06
56330;BME280;42236;48.058;10.632;2024-03-23T12:44:28;94211.03;;;8.23;71.86
56330;BME280;42236;48.058;10.632;2024-03-23T12:47:14;94200.75;;;8.37;74.93
56330;BME280;42236;48.058;10.632;2024-03-23T12:50:00;94192.03;;;8.52;75.97
56330;BME280;42236;48.058;10.632;2024-03-23T12:52:45;94182.41;;;8.51;71.31
56330;BME280;42236;48.058;10.632;2024-03-23T12:55:31;94177.59;;;8.45;74.68
56330;BME280;42236;48.058;10.632;2024-03-23T12:58:17;94175.09;;;8.27;68.20
56330;BME280;42236;48.058;10.632;2024-03-23T13:01:03;94156.19;;;8.11;68.93
56330;BME280;42236;48.058;10.632;2024-03-23T13:03:49;94155.09;;;8.00;68.67
56330;BME280;42236;48.058;10.632;2024-03-23T13:06:35;94139.97;;;7.83;69.17
56330;BME280;42236;48.058;10.632;2024-03-23T13:09:21;94152.56;;;7.70;65.46
56330;BME280;42236;48.058;10.632;2024-03-23T13:12:07;94148.63;;;7.56;69.57
56330;BME280;42236;48.058;10.632;2024-03-23T13:14:53;94165.59;;;7.35;71.61
56330;BME280;42236;48.058;10.632;2024-03-23T13:17:38;94176.06;;;6.95;72.40
56330;BME280;42236;48.058;10.632;2024-03-23T13:20:24;94199.63;;;6.09;74.30
56330;BME280;42236;48.058;10.632;2024-03-23T13:23:10;94171.38;;;5.34;78.52
56330;BME280;42236;48.058;10.632;2024-03-23T13:25:56;94191.41;;;4.85;81.00
56330;BME280;42236;48.058;10.632;2024-03-23T13:28:42;94197.53;;;4.59;83.99
56330;BME280;42236;48.058;10.632;2024-03-23T13:31:28;94191.06;;;4.43;85.88
56330;BME280;42236;48.058;10.632;2024-03-23T13:34:14;94186.03;;;4.41;86.38
56330;BME280;42236;48.058;10.632;2024-03-23T13:37:01;94176.13;;;4.42;87.53
56330;BME280;42236;48.058;10.632;2024-03-23T13:39:47;94187.75;;;4.46;89.28
56330;BME280;42236;48.058;10.632;2024-03-23T13:42:33;94194.53;;;4.52;89.13
56330;BME280;42236;48.058;10.632;2024-03-23T13:45:18;94202.41;;;4.57;90.58
56330;BME280;42236;48.058;10.632;2024-03-23T13:48:04;94207.59;;;4.62;91.13
56330;BME280;42236;48.058;10.632;2024-03-23T13:50:57;94202.88;;;4.77;85.93
56330;BME280;42236;48.058;10.632;2024-03-23T13:53:43;94209.63;;;4.83;86.73
56330;BME280;42236;48.058;10.632;2024-03-23T13:56:28;94216.56;;;4.84;88.13
56330;BME280;42236;48.058;10.632;2024-03-23T13:59:14;94222.69;;;4.84;89.76
56330;BME280;42236;48.058;10.632;2024-03-23T14:02:00;94233.19;;;4.81;91.16
56330;BME280;42236;48.058;10.632;2024-03-23T14:04:45;94226.44;;;4.75;90.61
56330;BME280;42236;48.058;10.632;2024-03-23T14:07:31;94231.63;;;4.62;91.73
56330;BME280;42236;48.058;10.632;2024-03-23T14:10:17;94239.94;;;4.52;94.18
56330;BME280;42236;48.058;10.632;2024-03-23T14:13:03;94242.00;;;4.55;94.68
56330;BME280;42236;48.058;10.632;2024-03-23T14:15:53;94248.13;;;4.56;96.42
56330;BME280;42236;48.058;10.632;2024-03-23T14:18:38;94244.50;;;4.60;95.99
56330;BME280;42236;48.058;10.632;2024-03-23T14:21:24;94242.50;;;4.75;96.63
56330;BME280;42236;48.058;10.632;2024-03-23T14:24:10;94227.06;;;5.24;98.06
56330;BME280;42236;48.058;10.632;2024-03-23T14:26:55;94232.81;;;5.69;100.00
56330;BME280;42236;48.058;10.632;2024-03-23T14:29:41;94234.34;;;5.79;94.86
56330;BME280;42236;48.058;10.632;2024-03-23T14:32:26;94207.41;;;5.84;95.48
56330;BME280;42236;48.058;10.632;2024-03-23T14:35:12;94209.78;;;5.94;96.48
56330;BME280;42236;48.058;10.632;2024-03-23T14:37:58;94202.66;;;5.98;94.64
56330;BME280;42236;48.058;10.632;2024-03-23T14:40:44;94209.19;;;6.18;94.25
56330;BME280;42236;48.058;10.632;2024-03-23T14:43:30;94221.00;;;6.26;91.63
56330;BME280;42236;48.058;10.632;2024-03-23T14:46:16;94210.31;;;6.17;91.07
56330;BME280;42236;48.058;10.632;2024-03-23T14:49:02;94207.31;;;6.19;92.05
56330;BME280;42236;48.058;10.632;2024-03-23T14:51:48;94206.56;;;6.39;92.83
56330;BME280;42236;48.058;10.632;2024-03-23T14:54:33;94198.75;;;6.55;90.44
56330;BME280;42236;48.058;10.632;2024-03-23T14:57:20;94190.00;;;6.67;90.26
56330;BME280;42236;48.058;10.632;2024-03-23T15:00:07;94185.75;;;6.66;88.76
56330;BME280;42236;48.058;10.632;2024-03-23T15:02:53;94186.31;;;6.51;86.41
56330;BME280;42236;48.058;10.632;2024-03-23T15:05:39;94194.09;;;6.44;87.30
56330;BME280;42236;48.058;10.632;2024-03-23T15:08:24;94205.47;;;6.40;87.67
56330;BME280;42236;48.058;10.632;2024-03-23T15:11:10;94210.38;;;6.38;86.50
56330;BME280;42236;48.058;10.632;2024-03-23T15:13:56;94202.31;;;6.38;84.28
56330;BME280;42236;48.058;10.632;2024-03-23T15:16:41;94194.56;;;6.46;81.77
56330;BME280;42236;48.058;10.632;2024-03-23T15:19:32;94195.41;;;6.58;81.36
56330;BME280;42236;48.058;10.632;2024-03-23T15:22:18;94194.72;;;6.70;78.53
56330;BME280;42236;48.058;10.632;2024-03-23T15:25:03;94195.81;;;6.69;75.64
56330;BME280;42236;48.058;10.632;2024-03-23T15:27:49;94199.34;;;6.61;74.62
56330;BME280;42236;48.058;10.632;2024-03-23T15:30:35;94191.69;;;6.51;73.46
56330;BME280;42236;48.058;10.632;2024-03-23T15:33:20;94188.75;;;6.44;76.10
56330;BME280;42236;48.058;10.632;2024-03-23T15:36:06;94183.56;;;6.38;75.00
56330;BME280;42236;48.058;10.632;2024-03-23T15:38:52;94171.94;;;6.34;74.19
56330;BME280;42236;48.058;10.632;2024-03-23T15:41:40;94170.69;;;6.32;73.32